sensor_id;sensor_type;location;lat;lon;timestamp;pressure;altitude;pressure_sealevel;temperature;humidity
56074;BME280;41950;55.840;37.442;2022-08-14T00:00:43;100148.53;;;21.57;62.53
56074;BME280;41950;55.840;37.442;2022-08-14T00:03:29;100135.06;;;21.46;62.46
56074;BME280;41950;55.840;37.442;2022-08-14T00:06:02;100154.75;;;21.56;62.38
56074;BME280;41950;55.840;37.442;2022-08-14T00:08:28;100158.41;;;21.53;62.48
56074;BME280;41950;55.840;37.442;2022-08-14T00:10:55;100156.19;;;21.46;62.63
56074;BME280;41950;55.840;37.442;2022-08-14T00:13:23;100159.16;;;21.55;62.22
56074;BME280;41950;55.840;37.442;2022-08-14T00:15:53;100166.25;;;21.55;62.49
56074;BME280;41950;55.840;37.442;2022-08-14T00:18:23;100159.34;;;21.52;62.58
56074;BME280;41950;55.840;37.442;2022-08-14T00:20:49;100144.34;;;21.37;62.41
56074;BME280;41950;55.840;37.442;2022-08-14T00:23:16;100151.06;;;21.43;62.69
56074;BME280;41950;55.840;37.442;2022-08-14T00:25:44;100150.03;;;21.29;63.22
56074;BME280;41950;55.840;37.442;2022-08-14T00:28:13;100146.91;;;21.21;63.23
56074;BME280;41950;55.840;37.442;2022-08-14T00:30:39;100154.38;;;21.31;63.17
56074;BME280;41950;55.840;37.442;2022-08-14T00:33:05;100158.72;;;21.32;63.19
56074;BME280;41950;55.840;37.442;2022-08-14T00:35:32;100155.91;;;21.35;63.22
56074;BME280;41950;55.840;37.442;2022-08-14T00:37:58;100145.59;;;21.30;63.33
56074;BME280;41950;55.840;37.442;2022-08-14T00:40:24;100161.03;;;21.38;63.10
56074;BME280;41950;55.840;37.442;2022-08-14T00:42:50;100162.13;;;21.34;63.20
56074;BME280;41950;55.840;37.442;2022-08-14T00:45:16;100146.63;;;21.27;62.98
56074;BME280;41950;55.840;37.442;2022-08-14T00:47:44;100152.31;;;21.36;62.92
56074;BME280;41950;55.840;37.442;2022-08-14T00:50:13;100150.78;;;21.32;63.22
56074;BME280;41950;55.840;37.442;2022-08-14T00:52:39;100155.81;;;21.36;62.95
56074;BME280;41950;55.840;37.442;2022-08-14T00:55:06;100141.56;;;21.23;62.31
56074;BME280;41950;55.840;37.442;2022-08-14T00:57:34;100144.19;;;21.23;62.69
56074;BME280;41950;55.840;37.442;2022-08-14T01:00:03;100138.41;;;21.16;62.86
56074;BME280;41950;55.840;37.442;2022-08-14T01:02:29;100153.91;;;21.22;62.64
56074;BME280;41950;55.840;37.442;2022-08-14T01:04:57;100148.78;;;21.19;62.37
56074;BME280;41950;55.840;37.442;2022-08-14T01:07:25;100153.31;;;21.17;62.29
56074;BME280;41950;55.840;37.442;2022-08-14T01:09:56;100155.25;;;21.14;62.87
56074;BME280;41950;55.840;37.442;2022-08-14T01:12:27;100154.25;;;21.16;62.57
56074;BME280;41950;55.840;37.442;2022-08-14T01:14:54;100155.25;;;21.14;62.88
56074;BME280;41950;55.840;37.442;2022-08-14T01:17:21;100151.06;;;21.10;62.73
56074;BME280;41950;55.840;37.442;2022-08-14T01:19:48;100153.63;;;21.11;62.75
56074;BME280;41950;55.840;37.442;2022-08-14T01:22:33;100145.94;;;21.07;62.33
56074;BME280;41950;55.840;37.442;2022-08-14T01:25:00;100156.34;;;21.10;62.81
56074;BME280;41950;55.840;37.442;2022-08-14T01:27:26;100161.69;;;21.08;62.49
56074;BME280;41950;55.840;37.442;2022-08-14T01:29:55;100163.72;;;21.03;62.79
56074;BME280;41950;55.840;37.442;2022-08-14T01:32:21;100153.41;;;20.98;62.70
56074;BME280;41950;55.840;37.442;2022-08-14T01:34:52;100154.59;;;20.93;63.04
56074;BME280;41950;55.840;37.442;2022-08-14T01:37:19;100144.19;;;20.90;62.80
56074;BME280;41950;55.840;37.442;2022-08-14T01:39:49;100159.72;;;20.96;62.82
56074;BME280;41950;55.840;37.442;2022-08-14T01:42:16;100162.25;;;20.97;62.97
56074;BME280;41950;55.840;37.442;2022-08-14T01:44:42;100158.94;;;20.94;63.03
56074;BME280;41950;55.840;37.442;2022-08-14T01:47:09;100154.75;;;20.90;63.14
56074;BME280;41950;55.840;37.442;2022-08-14T01:49:39;100160.03;;;20.90;63.24
56074;BME280;41950;55.840;37.442;2022-08-14T01:52:05;100159.25;;;20.88;63.63
56074;BME280;41950;55.840;37.442;2022-08-14T01:54:32;100156.31;;;20.77;63.41
56074;BME280;41950;55.840;37.442;2022-08-14T01:56:58;100166.84;;;20.77;63.68
56074;BME280;41950;55.840;37.442;2022-08-14T01:59:26;100165.47;;;20.70;63.68
56074;BME280;41950;55.840;37.442;2022-08-14T02:02:05;100165.78;;;20.63;63.81
56074;BME280;41950;55.840;37.442;2022-08-14T02:04:38;100170.91;;;20.66;64.01
56074;BME280;41950;55.840;37.442;2022-08-14T02:07:05;100158.97;;;20.59;64.20
56074;BME280;41950;55.840;37.442;2022-08-14T02:09:31;100177.03;;;20.67;63.68
56074;BME280;41950;55.840;37.442;2022-08-14T02:12:01;100167.75;;;20.60;63.58
56074;BME280;41950;55.840;37.442;2022-08-14T02:14:27;100166.03;;;20.59;63.07
56074;BME280;41950;55.840;37.442;2022-08-14T02:16:54;100161.91;;;20.53;62.94
56074;BME280;41950;55.840;37.442;2022-08-14T02:19:25;100169.75;;;20.55;63.04
56074;BME280;41950;55.840;37.442;2022-08-14T02:21:56;100176.66;;;20.57;62.74
56074;BME280;41950;55.840;37.442;2022-08-14T02:24:25;100173.25;;;20.55;62.33
56074;BME280;41950;55.840;37.442;2022-08-14T02:26:53;100176.66;;;20.57;62.42
56074;BME280;41950;55.840;37.442;2022-08-14T02:29:22;100181.78;;;20.60;62.32
56074;BME280;41950;55.840;37.442;2022-08-14T02:31:51;100185.34;;;20.59;62.10
56074;BME280;41950;55.840;37.442;2022-08-14T02:34:20;100185.28;;;20.61;61.90
56074;BME280;41950;55.840;37.442;2022-08-14T02:36:49;100186.13;;;20.61;61.91
56074;BME280;41950;55.840;37.442;2022-08-14T02:39:15;100174.03;;;20.57;61.60
56074;BME280;41950;55.840;37.442;2022-08-14T02:41:41;100183.31;;;20.64;61.50
56074;BME280;41950;55.840;37.442;2022-08-14T02:44:10;100163.59;;;20.54;61.38
56074;BME280;41950;55.840;37.442;2022-08-14T02:46:39;100186.91;;;20.63;61.13
56074;BME280;41950;55.840;37.442;2022-08-14T02:49:09;100185.13;;;20.64;61.30
56074;BME280;41950;55.840;37.442;2022-08-14T02:51:36;100187.66;;;20.65;61.18
56074;BME280;41950;55.840;37.442;2022-08-14T02:54:04;100188.44;;;20.67;61.35
56074;BME280;41950;55.840;37.442;2022-08-14T02:56:31;100191.69;;;20.73;61.06
56074;BME280;41950;55.840;37.442;2022-08-14T02:58:58;100192.31;;;20.78;60.35
56074;BME280;41950;55.840;37.442;2022-08-14T03:01:26;100194.78;;;20.81;60.47
56074;BME280;41950;55.840;37.442;2022-08-14T03:03:53;100171.28;;;20.76;60.35
56074;BME280;41950;55.840;37.442;2022-08-14T03:06:22;100193.56;;;20.88;60.19
56074;BME280;41950;55.840;37.442;2022-08-14T03:08:49;100184.09;;;20.84;60.61
56074;BME280;41950;55.840;37.442;2022-08-14T03:11:15;100181.38;;;20.85;60.90
56074;BME280;41950;55.840;37.442;2022-08-14T03:13:44;100171.59;;;20.87;60.27
56074;BME280;41950;55.840;37.442;2022-08-14T03:16:16;100194.53;;;21.03;59.84
56074;BME280;41950;55.840;37.442;2022-08-14T03:18:43;100191.66;;;21.07;59.61
56074;BME280;41950;55.840;37.442;2022-08-14T03:21:12;100184.66;;;21.06;59.31
56074;BME280;41950;55.840;37.442;2022-08-14T03:23:39;100191.34;;;21.13;59.42
56074;BME280;41950;55.840;37.442;2022-08-14T03:26:10;100191.03;;;21.19;59.15
56074;BME280;41950;55.840;37.442;2022-08-14T03:28:37;100193.59;;;21.21;59.68
56074;BME280;41950;55.840;37.442;2022-08-14T03:31:07;100193.59;;;21.21;59.93
56074;BME280;41950;55.840;37.442;2022-08-14T03:33:33;100182.16;;;21.20;59.61
56074;BME280;41950;55.840;37.442;2022-08-14T03:36:04;100177.59;;;21.24;59.44
56074;BME280;41950;55.840;37.442;2022-08-14T03:38:34;100185.19;;;21.30;59.40
56074;BME280;41950;55.840;37.442;2022-08-14T03:41:20;100181.31;;;21.37;59.21
56074;BME280;41950;55.840;37.442;2022-08-14T03:43:48;100193.84;;;21.49;58.95
56074;BME280;41950;55.840;37.442;2022-08-14T03:46:15;100201.50;;;21.54;59.04
56074;BME280;41950;55.840;37.442;2022-08-14T03:48:41;100196.91;;;21.57;58.13
56074;BME280;41950;55.840;37.442;2022-08-14T03:51:09;100183.19;;;21.51;57.54
56074;BME280;41950;55.840;37.442;2022-08-14T03:53:41;100193.88;;;21.65;57.21
56074;BME280;41950;55.840;37.442;2022-08-14T03:56:09;100197.97;;;21.71;57.07
56074;BME280;41950;55.840;37.442;2022-08-14T03:58:39;100194.72;;;21.81;56.85
56074;BME280;41950;55.840;37.442;2022-08-14T04:01:07;100193.00;;;21.80;56.54
56074;BME280;41950;55.840;37.442;2022-08-14T04:03:34;100194.97;;;21.77;56.33
56074;BME280;41950;55.840;37.442;2022-08-14T04:06:00;100184.41;;;21.77;56.14
56074;BME280;41950;55.840;37.442;2022-08-14T04:08:26;100193.69;;;21.84;56.66
56074;BME280;41950;55.840;37.442;2022-08-14T04:10:52;100184.06;;;21.83;55.83
56074;BME280;41950;55.840;37.442;2022-08-14T04:13:19;100178.94;;;21.80;55.91
56074;BME280;41950;55.840;37.442;2022-08-14T04:15:45;100191.31;;;21.95;56.06
56074;BME280;41950;55.840;37.442;2022-08-14T04:18:11;100190.47;;;21.95;55.84
56074;BME280;41950;55.840;37.442;2022-08-14T04:20:39;100197.03;;;22.03;56.12
56074;BME280;41950;55.840;37.442;2022-08-14T04:23:07;100181.34;;;22.00;55.75
56074;BME280;41950;55.840;37.442;2022-08-14T04:25:33;100187.25;;;22.05;55.43
56074;BME280;41950;55.840;37.442;2022-08-14T04:28:04;100181.97;;;22.05;55.78
56074;BME280;41950;55.840;37.442;2022-08-14T04:30:31;100180.84;;;22.09;55.48
56074;BME280;41950;55.840;37.442;2022-08-14T04:32:57;100187.56;;;22.15;55.38
56074;BME280;41950;55.840;37.442;2022-08-14T04:35:23;100192.16;;;22.27;55.22
56074;BME280;41950;55.840;37.442;2022-08-14T04:37:49;100196.16;;;22.34;55.05
56074;BME280;41950;55.840;37.442;2022-08-14T04:40:33;100202.78;;;22.41;54.77
56074;BME280;41950;55.840;37.442;2022-08-14T04:43:19;100180.38;;;22.33;55.07
56074;BME280;41950;55.840;37.442;2022-08-14T04:46:13;100201.59;;;22.47;54.64
56074;BME280;41950;55.840;37.442;2022-08-14T04:48:40;100194.53;;;22.47;54.21
56074;BME280;41950;55.840;37.442;2022-08-14T04:51:11;100197.75;;;22.52;54.43
56074;BME280;41950;55.840;37.442;2022-08-14T04:53:39;100188.59;;;22.58;54.28
56074;BME280;41950;55.840;37.442;2022-08-14T04:56:07;100185.19;;;22.56;54.52
56074;BME280;41950;55.840;37.442;2022-08-14T04:58:33;100191.34;;;22.71;53.94
56074;BME280;41950;55.840;37.442;2022-08-14T05:01:00;100184.13;;;22.74;53.87
56074;BME280;41950;55.840;37.442;2022-08-14T05:03:29;100162.25;;;22.71;53.76
56074;BME280;41950;55.840;37.442;2022-08-14T05:05:58;100182.47;;;22.88;53.75
56074;BME280;41950;55.840;37.442;2022-08-14T05:08:25;100185.56;;;22.94;53.50
56074;BME280;41950;55.840;37.442;2022-08-14T05:10:53;100192.78;;;23.06;53.24
56074;BME280;41950;55.840;37.442;2022-08-14T05:13:24;100180.97;;;23.12;53.17
56074;BME280;41950;55.840;37.442;2022-08-14T05:15:51;100174.72;;;23.13;53.18
56074;BME280;41950;55.840;37.442;2022-08-14T05:18:22;100183.72;;;23.25;52.76
56074;BME280;41950;55.840;37.442;2022-08-14T05:20:50;100185.16;;;23.30;52.34
56074;BME280;41950;55.840;37.442;2022-08-14T05:23:20;100186.75;;;23.33;52.68
56074;BME280;41950;55.840;37.442;2022-08-14T05:25:47;100182.03;;;23.38;51.95
56074;BME280;41950;55.840;37.442;2022-08-14T05:28:22;100180.13;;;23.40;52.36
56074;BME280;41950;55.840;37.442;2022-08-14T05:30:52;100178.03;;;23.45;51.98
56074;BME280;41950;55.840;37.442;2022-08-14T05:33:19;100180.09;;;23.54;51.64
56074;BME280;41950;55.840;37.442;2022-08-14T05:35:47;100167.13;;;23.50;51.75
56074;BME280;41950;55.840;37.442;2022-08-14T05:38:16;100172.66;;;23.61;51.57
56074;BME280;41950;55.840;37.442;2022-08-14T05:40:42;100178.41;;;23.67;51.67
56074;BME280;41950;55.840;37.442;2022-08-14T05:43:09;100183.41;;;23.72;51.30
56074;BME280;41950;55.840;37.442;2022-08-14T05:45:35;100180.28;;;23.80;51.40
56074;BME280;41950;55.840;37.442;2022-08-14T05:48:02;100180.97;;;23.83;50.52
56074;BME280;41950;55.840;37.442;2022-08-14T05:50:28;100172.50;;;23.91;50.36
56074;BME280;41950;55.840;37.442;2022-08-14T05:52:53;100175.06;;;23.92;50.50
56074;BME280;41950;55.840;37.442;2022-08-14T05:55:20;100172.00;;;23.98;50.29
56074;BME280;41950;55.840;37.442;2022-08-14T05:57:58;100183.69;;;24.09;49.75
56074;BME280;41950;55.840;37.442;2022-08-14T06:00:33;100171.38;;;24.08;49.17
56074;BME280;41950;55.840;37.442;2022-08-14T06:03:00;100178.88;;;24.15;49.49
56074;BME280;41950;55.840;37.442;2022-08-14T06:05:27;100168.16;;;24.17;49.64
56074;BME280;41950;55.840;37.442;2022-08-14T06:07:53;100167.75;;;24.23;49.34
56074;BME280;41950;55.840;37.442;2022-08-14T06:10:19;100164.28;;;24.35;48.99
56074;BME280;41950;55.840;37.442;2022-08-14T06:12:44;100157.94;;;24.38;48.51
56074;BME280;41950;55.840;37.442;2022-08-14T06:15:10;100163.59;;;24.46;48.25
56074;BME280;41950;55.840;37.442;2022-08-14T06:17:47;100157.97;;;24.50;48.24
56074;BME280;41950;55.840;37.442;2022-08-14T06:20:14;100162.56;;;24.61;47.97
56074;BME280;41950;55.840;37.442;2022-08-14T06:22:41;100161.38;;;24.65;47.71
56074;BME280;41950;55.840;37.442;2022-08-14T06:25:09;100163.75;;;24.70;47.56
56074;BME280;41950;55.840;37.442;2022-08-14T06:27:43;100156.44;;;24.73;47.41
56074;BME280;41950;55.840;37.442;2022-08-14T06:30:15;100145.06;;;24.71;47.60
56074;BME280;41950;55.840;37.442;2022-08-14T06:32:41;100158.13;;;24.87;47.12
56074;BME280;41950;55.840;37.442;2022-08-14T06:35:08;100152.91;;;24.85;47.06
56074;BME280;41950;55.840;37.442;2022-08-14T06:37:46;100153.44;;;24.90;47.00
56074;BME280;41950;55.840;37.442;2022-08-14T06:42:51;100163.47;;;25.12;46.77
56074;BME280;41950;55.840;37.442;2022-08-14T06:45:19;100156.13;;;25.16;46.43
56074;BME280;41950;55.840;37.442;2022-08-14T06:47:46;100159.41;;;25.19;45.02
56074;BME280;41950;55.840;37.442;2022-08-14T06:50:14;100158.38;;;25.22;45.46
56074;BME280;41950;55.840;37.442;2022-08-14T06:52:41;100165.47;;;25.34;45.94
56074;BME280;41950;55.840;37.442;2022-08-14T06:55:09;100162.47;;;25.39;45.17
56074;BME280;41950;55.840;37.442;2022-08-14T06:57:37;100165.44;;;25.47;45.07
56074;BME280;41950;55.840;37.442;2022-08-14T07:00:13;100159.94;;;25.50;45.56
56074;BME280;41950;55.840;37.442;2022-08-14T07:02:40;100160.97;;;25.60;44.93
56074;BME280;41950;55.840;37.442;2022-08-14T07:05:24;100159.78;;;25.64;44.22
56074;BME280;41950;55.840;37.442;2022-08-14T07:10:45;100159.25;;;25.72;43.39
56074;BME280;41950;55.840;37.442;2022-08-14T07:13:11;100140.75;;;25.70;42.38
56074;BME280;41950;55.840;37.442;2022-08-14T07:15:39;100158.13;;;25.87;42.36
56074;BME280;41950;55.840;37.442;2022-08-14T07:18:07;100151.28;;;25.96;41.65
56074;BME280;41950;55.840;37.442;2022-08-14T07:20:33;100151.91;;;25.99;41.31
56074;BME280;41950;55.840;37.442;2022-08-14T07:23:03;100151.59;;;26.04;40.80
56074;BME280;41950;55.840;37.442;2022-08-14T07:25:31;100134.03;;;26.01;40.21
56074;BME280;41950;55.840;37.442;2022-08-14T07:27:57;100144.47;;;26.04;40.47
56074;BME280;41950;55.840;37.442;2022-08-14T07:30:23;100149.31;;;26.10;41.29
56074;BME280;41950;55.840;37.442;2022-08-14T07:32:49;100141.09;;;26.13;40.51
56074;BME280;41950;55.840;37.442;2022-08-14T07:35:15;100147.19;;;26.27;40.79
56074;BME280;41950;55.840;37.442;2022-08-14T07:37:41;100155.72;;;26.32;41.40
56074;BME280;41950;55.840;37.442;2022-08-14T07:40:07;100129.41;;;26.27;41.27
56074;BME280;41950;55.840;37.442;2022-08-14T07:42:33;100143.25;;;26.32;40.57
56074;BME280;41950;55.840;37.442;2022-08-14T07:44:59;100136.22;;;26.31;39.68
56074;BME280;41950;55.840;37.442;2022-08-14T07:47:25;100145.34;;;26.40;39.68
56074;BME280;41950;55.840;37.442;2022-08-14T07:49:59;100130.25;;;26.40;40.31
56074;BME280;41950;55.840;37.442;2022-08-14T07:52:26;100142.03;;;26.60;39.97
56074;BME280;41950;55.840;37.442;2022-08-14T07:54:52;100138.16;;;26.64;39.31
56074;BME280;41950;55.840;37.442;2022-08-14T07:57:18;100132.25;;;26.61;39.43
56074;BME280;41950;55.840;37.442;2022-08-14T07:59:45;100140.34;;;26.70;39.16
56074;BME280;41950;55.840;37.442;2022-08-14T08:02:16;100142.66;;;26.64;39.91
56074;BME280;41950;55.840;37.442;2022-08-14T08:04:44;100145.31;;;26.64;40.14
56074;BME280;41950;55.840;37.442;2022-08-14T08:07:11;100149.78;;;26.63;39.96
56074;BME280;41950;55.840;37.442;2022-08-14T08:09:42;100149.50;;;26.55;38.83
56074;BME280;41950;55.840;37.442;2022-08-14T08:12:09;100145.34;;;26.40;39.35
56074;BME280;41950;55.840;37.442;2022-08-14T08:14:37;100137.19;;;26.30;40.14
56074;BME280;41950;55.840;37.442;2022-08-14T08:17:04;100146.88;;;26.31;40.46
56074;BME280;41950;55.840;37.442;2022-08-14T08:19:30;100148.03;;;26.51;40.16
56074;BME280;41950;55.840;37.442;2022-08-14T08:21:59;100142.66;;;26.64;39.07
56074;BME280;41950;55.840;37.442;2022-08-14T08:24:28;100143.75;;;26.84;38.34
56074;BME280;41950;55.840;37.442;2022-08-14T08:26:53;100132.88;;;26.98;38.76
56074;BME280;41950;55.840;37.442;2022-08-14T08:29:21;100155.69;;;27.24;38.85
56074;BME280;41950;55.840;37.442;2022-08-14T08:31:48;100140.31;;;27.28;37.82
56074;BME280;41950;55.840;37.442;2022-08-14T08:34:16;100127.97;;;27.16;38.02
56074;BME280;41950;55.840;37.442;2022-08-14T08:36:42;100140.19;;;27.18;38.19
56074;BME280;41950;55.840;37.442;2022-08-14T08:39:09;100146.97;;;27.11;38.73
56074;BME280;41950;55.840;37.442;2022-08-14T08:41:42;100135.34;;;27.01;38.23
56074;BME280;41950;55.840;37.442;2022-08-14T08:44:08;100139.94;;;26.99;38.50
56074;BME280;41950;55.840;37.442;2022-08-14T08:46:33;100125.03;;;26.96;37.81
56074;BME280;41950;55.840;37.442;2022-08-14T08:48:59;100134.41;;;27.13;38.68
56074;BME280;41950;55.840;37.442;2022-08-14T08:51:36;100142.84;;;27.29;37.22
56074;BME280;41950;55.840;37.442;2022-08-14T08:54:09;100138.72;;;27.36;36.08
56074;BME280;41950;55.840;37.442;2022-08-14T08:56:52;100127.59;;;27.31;36.74
56074;BME280;41950;55.840;37.442;2022-08-14T08:59:26;100140.94;;;27.43;36.66
56074;BME280;41950;55.840;37.442;2022-08-14T09:01:54;100125.53;;;27.35;37.34
56074;BME280;41950;55.840;37.442;2022-08-14T09:04:22;100134.63;;;27.32;36.95
56074;BME280;41950;55.840;37.442;2022-08-14T09:06:48;100130.63;;;27.27;36.79
56074;BME280;41950;55.840;37.442;2022-08-14T09:09:21;100130.03;;;27.23;37.04
56074;BME280;41950;55.840;37.442;2022-08-14T09:11:48;100091.25;;;27.08;37.24
56074;BME280;41950;55.840;37.442;2022-08-14T09:14:14;100131.22;;;27.30;37.55
56074;BME280;41950;55.840;37.442;2022-08-14T09:16:40;100129.78;;;27.26;38.18
56074;BME280;41950;55.840;37.442;2022-08-14T09:19:06;100129.28;;;27.32;37.95
56074;BME280;41950;55.840;37.442;2022-08-14T09:21:34;100129.88;;;27.36;38.28
56074;BME280;41950;55.840;37.442;2022-08-14T09:24:00;100116.31;;;27.39;37.32
56074;BME280;41950;55.840;37.442;2022-08-14T09:26:26;100123.94;;;27.55;36.43
56074;BME280;41950;55.840;37.442;2022-08-14T09:28:52;100123.94;;;27.66;36.93
56074;BME280;41950;55.840;37.442;2022-08-14T09:31:21;100116.84;;;27.87;37.14
56074;BME280;41950;55.840;37.442;2022-08-14T09:39:04;100120.75;;;28.68;34.90
56074;BME280;41950;55.840;37.442;2022-08-14T09:50:35;100114.91;;;29.35;33.75
56074;BME280;41950;55.840;37.442;2022-08-14T09:53:09;100104.13;;;29.46;33.67
56074;BME280;41950;55.840;37.442;2022-08-14T09:55:35;100121.91;;;29.67;33.13
56074;BME280;41950;55.840;37.442;2022-08-14T09:58:16;100108.53;;;29.67;33.06
56074;BME280;41950;55.840;37.442;2022-08-14T10:00:50;100113.19;;;29.74;32.72
56074;BME280;41950;55.840;37.442;2022-08-14T10:03:32;100113.75;;;29.68;33.15
56074;BME280;41950;55.840;37.442;2022-08-14T10:06:15;100102.34;;;29.66;32.48
56074;BME280;41950;55.840;37.442;2022-08-14T10:08:53;100112.75;;;29.69;32.09
56074;BME280;41950;55.840;37.442;2022-08-14T10:11:25;100107.00;;;29.74;32.26
56074;BME280;41950;55.840;37.442;2022-08-14T10:13:56;100117.03;;;29.91;31.89
56074;BME280;41950;55.840;37.442;2022-08-14T10:16:24;100107.88;;;30.03;31.08
56074;BME280;41950;55.840;37.442;2022-08-14T10:19:06;100112.41;;;30.03;30.10
56074;BME280;41950;55.840;37.442;2022-08-14T10:21:34;100095.72;;;29.80;30.61
56074;BME280;41950;55.840;37.442;2022-08-14T10:24:00;100111.91;;;29.78;31.81
56074;BME280;41950;55.840;37.442;2022-08-14T10:26:26;100100.81;;;29.93;31.01
56074;BME280;41950;55.840;37.442;2022-08-14T10:29:06;100106.91;;;30.24;31.24
56074;BME280;41950;55.840;37.442;2022-08-14T10:31:34;100099.28;;;30.48;30.06
56074;BME280;41950;55.840;37.442;2022-08-14T10:34:07;100109.97;;;30.58;29.46
56074;BME280;41950;55.840;37.442;2022-08-14T10:36:43;100108.56;;;30.54;30.37
56074;BME280;41950;55.840;37.442;2022-08-14T10:41:42;100100.81;;;30.51;30.22
56074;BME280;41950;55.840;37.442;2022-08-14T10:44:15;100093.19;;;30.56;30.28
56074;BME280;41950;55.840;37.442;2022-08-14T10:52:03;100104.22;;;30.33;30.66
56074;BME280;41950;55.840;37.442;2022-08-14T10:54:38;100088.81;;;30.55;31.10
56074;BME280;41950;55.840;37.442;2022-08-14T10:59:41;100100.69;;;30.42;31.16
56074;BME280;41950;55.840;37.442;2022-08-14T11:02:27;100101.69;;;30.41;31.59
56074;BME280;41950;55.840;37.442;2022-08-14T11:05:14;100087.31;;;30.33;29.87
56074;BME280;41950;55.840;37.442;2022-08-14T11:10:19;100092.53;;;30.44;31.01
56074;BME280;41950;55.840;37.442;2022-08-14T11:12:48;100095.75;;;30.38;28.97
56074;BME280;41950;55.840;37.442;2022-08-14T11:15:22;100078.13;;;30.35;29.83
56074;BME280;41950;55.840;37.442;2022-08-14T11:17:49;100072.44;;;30.58;29.66
56074;BME280;41950;55.840;37.442;2022-08-14T11:20:23;100083.97;;;30.87;29.45
56074;BME280;41950;55.840;37.442;2022-08-14T11:22:52;100094.16;;;31.11;28.55
56074;BME280;41950;55.840;37.442;2022-08-14T11:25:20;100086.66;;;31.24;27.79
56074;BME280;41950;55.840;37.442;2022-08-14T11:27:50;100094.97;;;31.49;28.29
56074;BME280;41950;55.840;37.442;2022-08-14T11:30:18;100085.47;;;31.82;28.36
56074;BME280;41950;55.840;37.442;2022-08-14T11:32:46;100086.56;;;32.07;28.05
56074;BME280;41950;55.840;37.442;2022-08-14T11:35:17;100091.03;;;32.24;28.20
56074;BME280;41950;55.840;37.442;2022-08-14T11:37:55;100074.94;;;32.24;28.30
56074;BME280;41950;55.840;37.442;2022-08-14T11:40:23;100074.88;;;32.34;26.78
56074;BME280;41950;55.840;37.442;2022-08-14T11:42:51;100082.38;;;32.48;27.32
56074;BME280;41950;55.840;37.442;2022-08-14T11:45:28;100084.84;;;32.67;26.73
56074;BME280;41950;55.840;37.442;2022-08-14T11:48:00;100077.06;;;32.82;26.64
56074;BME280;41950;55.840;37.442;2022-08-14T11:50:29;100082.38;;;33.00;26.96
56074;BME280;41950;55.840;37.442;2022-08-14T11:52:57;100080.59;;;33.16;26.62
56074;BME280;41950;55.840;37.442;2022-08-14T11:55:25;100077.69;;;33.10;27.08
56074;BME280;41950;55.840;37.442;2022-08-14T11:58:11;100062.28;;;32.86;26.73
56074;BME280;41950;55.840;37.442;2022-08-14T12:00:51;100071.94;;;32.97;27.44
56074;BME280;41950;55.840;37.442;2022-08-14T12:03:43;100065.56;;;32.98;26.54
56074;BME280;41950;55.840;37.442;2022-08-14T12:06:18;100071.19;;;32.86;26.03
56074;BME280;41950;55.840;37.442;2022-08-14T12:08:45;100070.97;;;32.54;26.50
56074;BME280;41950;55.840;37.442;2022-08-14T12:11:13;100073.19;;;32.33;26.97
56074;BME280;41950;55.840;37.442;2022-08-14T12:13:40;100067.91;;;32.05;26.66
56074;BME280;41950;55.840;37.442;2022-08-14T12:16:09;100076.47;;;31.73;28.32
56074;BME280;41950;55.840;37.442;2022-08-14T12:18:36;100075.47;;;31.56;28.56
56074;BME280;41950;55.840;37.442;2022-08-14T12:21:19;100069.22;;;31.38;29.58
56074;BME280;41950;55.840;37.442;2022-08-14T12:23:47;100065.06;;;31.26;29.10
56074;BME280;41950;55.840;37.442;2022-08-14T12:26:15;100068.03;;;31.23;29.02
56074;BME280;41950;55.840;37.442;2022-08-14T12:28:43;100063.75;;;31.30;29.25
56074;BME280;41950;55.840;37.442;2022-08-14T12:31:14;100073.03;;;31.35;29.98
56074;BME280;41950;55.840;37.442;2022-08-14T12:33:42;100055.09;;;31.36;29.99
56074;BME280;41950;55.840;37.442;2022-08-14T12:36:17;100054.13;;;31.37;29.37
56074;BME280;41950;55.840;37.442;2022-08-14T12:38:45;100049.59;;;31.38;29.14
56074;BME280;41950;55.840;37.442;2022-08-14T12:41:13;100050.44;;;31.38;29.38
56074;BME280;41950;55.840;37.442;2022-08-14T12:43:44;100060.16;;;31.39;29.46
56074;BME280;41950;55.840;37.442;2022-08-14T12:46:20;100050.75;;;31.35;30.09
56074;BME280;41950;55.840;37.442;2022-08-14T12:48:45;100056.72;;;31.29;28.75
56074;BME280;41950;55.840;37.442;2022-08-14T12:51:22;100053.38;;;31.17;28.91
56074;BME280;41950;55.840;37.442;2022-08-14T12:53:51;100046.44;;;31.15;28.93
56074;BME280;41950;55.840;37.442;2022-08-14T12:56:18;100055.91;;;31.19;29.66
56074;BME280;41950;55.840;37.442;2022-08-14T12:58:55;100039.63;;;30.93;30.13
56074;BME280;41950;55.840;37.442;2022-08-14T13:01:24;100042.63;;;30.90;30.11
56074;BME280;41950;55.840;37.442;2022-08-14T13:03:50;100045.59;;;30.87;29.96
56074;BME280;41950;55.840;37.442;2022-08-14T13:06:17;100041.53;;;30.83;30.44
56074;BME280;41950;55.840;37.442;2022-08-14T13:08:44;100048.28;;;30.87;30.82
56074;BME280;41950;55.840;37.442;2022-08-14T13:11:18;100040.59;;;30.74;30.03
56074;BME280;41950;55.840;37.442;2022-08-14T13:13:46;100039.19;;;30.70;29.30
56074;BME280;41950;55.840;37.442;2022-08-14T13:16:12;100043.13;;;30.66;29.15
56074;BME280;41950;55.840;37.442;2022-08-14T13:18:42;100034.94;;;30.58;30.31
56074;BME280;41950;55.840;37.442;2022-08-14T13:21:12;100039.22;;;30.51;30.79
56074;BME280;41950;55.840;37.442;2022-08-14T13:23:40;100041.88;;;30.51;30.20